createdAt,value
2018-08-30T00:01:40.309Z,17.40
2018-08-30T00:04:08.769Z,17.40
2018-08-30T00:06:37.378Z,17.30
2018-08-30T00:09:06.786Z,17.30
2018-08-30T00:11:35.259Z,17.30
2018-08-30T00:14:03.922Z,17.30
2018-08-30T00:16:32.584Z,17.30
2018-08-30T00:19:01.339Z,17.30
2018-08-30T00:21:29.824Z,17.20
2018-08-30T00:23:58.276Z,17.10
2018-08-30T00:26:26.868Z,17.20
2018-08-30T00:28:55.347Z,17.10
2018-08-30T00:31:23.853Z,17.10
2018-08-30T00:33:52.399Z,17.10
2018-08-30T00:36:20.987Z,17.00
2018-08-30T00:38:49.449Z,16.90
2018-08-30T00:41:17.992Z,16.90
2018-08-30T00:43:46.436Z,16.90
2018-08-30T00:46:14.939Z,16.80
2018-08-30T00:48:43.395Z,16.90
2018-08-30T00:51:11.816Z,16.90
2018-08-30T00:53:40.263Z,17.00
2018-08-30T00:56:08.857Z,16.70
2018-08-30T00:58:37.349Z,16.80
2018-08-30T01:01:05.718Z,16.90
2018-08-30T01:03:34.197Z,16.80
2018-08-30T01:06:02.686Z,16.80
2018-08-30T01:08:31.267Z,16.70
2018-08-30T01:10:59.851Z,16.80
2018-08-30T01:13:28.254Z,16.90
2018-08-30T01:15:56.825Z,16.90
2018-08-30T01:18:25.301Z,16.70
2018-08-30T01:20:53.842Z,16.80
2018-08-30T01:23:22.330Z,16.80
2018-08-30T01:25:50.788Z,16.70
2018-08-30T01:28:19.323Z,16.70
2018-08-30T01:30:47.767Z,16.70
2018-08-30T01:33:16.393Z,16.70
2018-08-30T01:35:44.969Z,16.70
2018-08-30T01:38:13.449Z,16.60
2018-08-30T01:40:41.899Z,16.60
2018-08-30T01:43:10.441Z,16.70
2018-08-30T01:45:39.077Z,16.60
2018-08-30T01:48:07.794Z,16.60
2018-08-30T01:50:37.003Z,16.50
2018-08-30T01:53:05.740Z,16.50
2018-08-30T01:55:34.355Z,16.50
2018-08-30T01:58:02.911Z,16.50
2018-08-30T02:00:31.595Z,16.30
2018-08-30T02:03:00.158Z,16.40
2018-08-30T02:05:28.682Z,16.30
2018-08-30T02:07:57.235Z,16.00
2018-08-30T02:10:25.878Z,16.00
2018-08-30T02:12:54.452Z,16.10
2018-08-30T02:15:22.938Z,16.10
2018-08-30T02:17:51.514Z,16.30
2018-08-30T02:20:20.098Z,16.20
2018-08-30T02:22:48.554Z,16.00
2018-08-30T02:25:17.095Z,16.00
2018-08-30T02:27:45.543Z,15.80
2018-08-30T02:30:14.034Z,15.90
2018-08-30T02:32:42.486Z,16.10
2018-08-30T02:35:10.973Z,16.20
2018-08-30T02:37:39.597Z,16.20
2018-08-30T02:40:08.143Z,16.30
2018-08-30T02:42:36.610Z,16.20
2018-08-30T02:45:05.730Z,16.20
2018-08-30T02:47:34.206Z,16.30
2018-08-30T02:50:02.678Z,16.30
2018-08-30T02:52:31.170Z,16.20
2018-08-30T02:54:59.731Z,16.20
2018-08-30T02:57:28.331Z,16.00
2018-08-30T02:59:56.889Z,16.10
2018-08-30T03:02:25.411Z,16.10
2018-08-30T03:04:53.944Z,16.10
2018-08-30T03:07:22.474Z,16.10
2018-08-30T03:09:50.986Z,16.10
2018-08-30T03:12:19.520Z,16.10
2018-08-30T03:14:59.374Z,15.90
2018-08-30T03:17:27.853Z,16.00
2018-08-30T03:19:56.406Z,15.90
2018-08-30T03:22:25.175Z,15.70
2018-08-30T03:24:53.740Z,15.70
2018-08-30T03:27:22.398Z,15.80
2018-08-30T03:29:50.985Z,15.80
2018-08-30T03:32:19.483Z,15.80
2018-08-30T03:34:47.943Z,15.80
2018-08-30T03:37:16.527Z,15.70
2018-08-30T03:39:45.151Z,15.50
2018-08-30T03:42:13.794Z,15.60
2018-08-30T03:44:42.258Z,15.80
2018-08-30T03:47:10.926Z,15.80
2018-08-30T03:49:40.527Z,15.80
2018-08-30T03:52:09.485Z,15.80
2018-08-30T03:54:37.977Z,15.80
2018-08-30T03:57:06.679Z,15.80
2018-08-30T03:59:35.132Z,15.80
2018-08-30T04:02:04.204Z,15.60
2018-08-30T04:04:32.727Z,15.50
2018-08-30T04:07:01.295Z,15.40
2018-08-30T04:09:29.708Z,15.40
2018-08-30T04:11:58.214Z,15.40
2018-08-30T04:14:26.811Z,15.50
2018-08-30T04:16:55.338Z,15.50
2018-08-30T04:19:23.809Z,15.60
2018-08-30T04:21:52.349Z,15.60
2018-08-30T04:24:20.841Z,15.60
2018-08-30T04:26:49.414Z,15.60
2018-08-30T04:29:18.061Z,15.60
2018-08-30T04:31:46.538Z,15.60
2018-08-30T04:34:15.225Z,15.70
2018-08-30T04:36:43.823Z,15.60
2018-08-30T04:39:12.209Z,15.60
2018-08-30T04:41:40.724Z,15.50
2018-08-30T04:44:09.246Z,15.50
2018-08-30T04:46:37.759Z,15.40
2018-08-30T04:49:12.813Z,15.20
2018-08-30T04:51:41.342Z,15.10
2018-08-30T04:54:09.778Z,15.00
2018-08-30T04:56:38.339Z,15.10
2018-08-30T04:59:06.906Z,15.20
2018-08-30T05:01:35.457Z,15.20
2018-08-30T05:04:04.040Z,15.10
2018-08-30T05:06:32.565Z,15.00
2018-08-30T05:09:01.041Z,15.00
2018-08-30T05:11:29.431Z,15.10
2018-08-30T05:13:57.877Z,15.00
2018-08-30T05:16:26.516Z,15.00
2018-08-30T05:18:54.873Z,15.10
2018-08-30T05:21:23.337Z,15.30
2018-08-30T05:23:51.853Z,15.30
2018-08-30T05:26:20.434Z,15.30
2018-08-30T05:28:48.869Z,15.30
2018-08-30T05:31:17.257Z,15.40
2018-08-30T05:33:45.673Z,15.50
2018-08-30T05:36:14.147Z,15.60
2018-08-30T05:38:42.636Z,15.60
2018-08-30T05:41:11.216Z,15.80
2018-08-30T05:43:39.847Z,15.60
2018-08-30T05:46:08.453Z,15.80
2018-08-30T05:48:37.011Z,15.80
2018-08-30T05:51:06.578Z,15.90
2018-08-30T05:53:35.158Z,15.90
2018-08-30T05:56:03.867Z,16.00
2018-08-30T05:58:32.319Z,16.00
2018-08-30T06:01:01.012Z,16.00
2018-08-30T06:03:29.547Z,16.00
2018-08-30T06:05:58.132Z,16.00
2018-08-30T06:08:26.629Z,16.00
2018-08-30T06:10:54.996Z,15.90
2018-08-30T06:13:23.393Z,15.70
2018-08-30T06:15:51.972Z,15.50
2018-08-30T06:18:20.454Z,15.60
2018-08-30T06:20:48.919Z,15.80
2018-08-30T06:23:17.432Z,15.60
2018-08-30T06:25:45.822Z,15.50
2018-08-30T06:28:14.290Z,15.50
2018-08-30T06:30:43.739Z,15.70
2018-08-30T06:33:12.184Z,15.90
2018-08-30T06:35:40.664Z,16.00
2018-08-30T06:38:09.190Z,15.90
2018-08-30T06:40:37.741Z,16.00
2018-08-30T06:43:06.319Z,16.10
2018-08-30T06:45:35.004Z,16.20
2018-08-30T06:48:03.269Z,16.20
2018-08-30T06:50:31.626Z,16.30
2018-08-30T06:53:00.134Z,16.30
2018-08-30T06:55:28.713Z,16.40
2018-08-30T06:57:57.203Z,16.60
2018-08-30T07:00:25.687Z,16.60
2018-08-30T07:02:54.474Z,16.70
2018-08-30T07:05:23.191Z,16.70
2018-08-30T07:07:51.770Z,16.70
2018-08-30T07:10:20.201Z,16.80
2018-08-30T07:12:48.637Z,17.00
2018-08-30T07:15:17.161Z,17.10
2018-08-30T07:17:45.629Z,17.10
2018-08-30T07:20:14.286Z,17.00
2018-08-30T07:22:42.686Z,16.50
2018-08-30T07:25:11.205Z,16.70
2018-08-30T07:27:39.687Z,16.90
2018-08-30T07:30:11.015Z,17.00
2018-08-30T07:32:39.591Z,17.10
2018-08-30T07:35:08.367Z,17.10
2018-08-30T07:37:36.997Z,17.20
2018-08-30T07:40:05.523Z,17.40
2018-08-30T07:42:33.981Z,16.80
2018-08-30T07:45:02.432Z,16.70
2018-08-30T07:47:31.080Z,17.10
2018-08-30T07:49:59.654Z,17.40
2018-08-30T07:52:28.184Z,17.20
2018-08-30T07:54:56.696Z,17.00
2018-08-30T07:57:25.681Z,17.20
2018-08-30T07:59:54.579Z,17.20
2018-08-30T08:02:22.904Z,17.30
2018-08-30T08:04:51.349Z,17.00
2018-08-30T08:07:19.852Z,16.70
2018-08-30T08:09:48.335Z,16.70
2018-08-30T08:12:16.706Z,16.50
2018-08-30T08:14:45.173Z,16.50
2018-08-30T08:17:13.634Z,16.50
2018-08-30T08:19:42.081Z,16.60
2018-08-30T08:22:10.645Z,16.80
2018-08-30T08:24:39.196Z,16.90
2018-08-30T08:27:07.637Z,17.00
2018-08-30T08:29:36.121Z,17.40
2018-08-30T08:32:04.615Z,17.20
2018-08-30T08:34:33.217Z,17.10
2018-08-30T08:37:01.670Z,17.30
2018-08-30T08:39:30.135Z,17.40
2018-08-30T08:41:58.661Z,17.50
2018-08-30T08:44:27.029Z,17.80
2018-08-30T08:46:55.602Z,17.90
2018-08-30T08:49:24.107Z,18.20
2018-08-30T08:51:52.698Z,18.30
2018-08-30T08:54:21.182Z,18.30
2018-08-30T08:56:49.653Z,18.50
2018-08-30T08:59:18.163Z,18.50
2018-08-30T09:01:46.779Z,18.30
2018-08-30T09:04:15.462Z,18.10
2018-08-30T09:06:43.990Z,17.90
2018-08-30T09:09:13.229Z,17.60
2018-08-30T09:11:42.340Z,17.80
2018-08-30T09:14:10.972Z,17.70
2018-08-30T09:16:39.661Z,17.60
2018-08-30T09:19:08.239Z,17.20
2018-08-30T09:21:36.878Z,17.10
2018-08-30T09:24:05.575Z,17.60
2018-08-30T09:26:34.193Z,17.80
2018-08-30T09:29:02.668Z,17.50
2018-08-30T09:31:31.163Z,17.30
2018-08-30T09:33:59.703Z,17.60
2018-08-30T09:36:28.112Z,17.60
2018-08-30T09:38:56.730Z,17.50
2018-08-30T09:41:25.294Z,17.50
2018-08-30T09:43:53.961Z,17.10
2018-08-30T09:46:22.365Z,17.10
2018-08-30T09:48:51.027Z,17.00
2018-08-30T09:51:19.585Z,17.00
2018-08-30T09:53:48.126Z,16.90
2018-08-30T09:56:16.597Z,17.00
2018-08-30T09:58:45.177Z,16.90
2018-08-30T10:01:18.897Z,17.00
2018-08-30T10:03:47.409Z,17.00
2018-08-30T10:06:15.821Z,16.90
2018-08-30T10:08:44.283Z,16.80
2018-08-30T10:11:20.536Z,16.90
2018-08-30T10:17:14.096Z,17.20
2018-08-30T10:19:42.813Z,17.60
2018-08-30T10:22:11.382Z,17.90
2018-08-30T10:24:39.853Z,18.30
2018-08-30T10:27:08.354Z,19.10
2018-08-30T10:29:36.886Z,19.50
2018-08-30T10:32:05.470Z,20.40
2018-08-30T10:34:33.951Z,20.00
2018-08-30T10:37:02.480Z,19.50
2018-08-30T10:39:30.922Z,19.20
2018-08-30T10:41:59.411Z,18.90
2018-08-30T10:44:27.895Z,18.20
2018-08-30T10:46:56.475Z,18.30
2018-08-30T10:49:24.999Z,18.10
2018-08-30T10:51:53.464Z,18.00
2018-08-30T10:54:22.670Z,18.20
2018-08-30T10:56:51.131Z,18.30
2018-08-30T10:59:19.729Z,18.90
2018-08-30T11:01:48.370Z,19.00
2018-08-30T11:04:16.910Z,19.00
2018-08-30T11:06:45.268Z,19.10
2018-08-30T11:09:13.784Z,19.70
2018-08-30T11:11:42.270Z,19.60
2018-08-30T11:14:10.885Z,19.90
2018-08-30T11:16:39.352Z,21.40
2018-08-30T11:19:07.893Z,20.70
2018-08-30T11:21:36.505Z,20.70
2018-08-30T11:24:04.933Z,21.20
2018-08-30T11:26:33.593Z,21.10
2018-08-30T11:29:02.077Z,21.50
2018-08-30T11:31:30.573Z,22.70
2018-08-30T11:33:58.962Z,22.80
2018-08-30T11:36:27.464Z,23.30
2018-08-30T11:38:56.020Z,23.30
2018-08-30T11:41:24.785Z,24.50
2018-08-30T11:43:53.288Z,24.90
2018-08-30T11:46:21.819Z,25.70
2018-08-30T11:48:50.376Z,24.00
2018-08-30T11:51:18.850Z,24.50
2018-08-30T11:53:47.425Z,23.10
2018-08-30T11:56:15.854Z,22.90
2018-08-30T11:58:44.364Z,21.20
2018-08-30T12:01:12.858Z,20.80
2018-08-30T12:03:41.393Z,21.10
2018-08-30T12:06:09.935Z,20.70
2018-08-30T12:08:38.518Z,20.70
2018-08-30T12:24:27.249Z,21.30
2018-08-30T12:26:55.442Z,20.70
2018-08-30T12:29:23.708Z,20.40
2018-08-30T12:31:52.023Z,20.40
2018-08-30T12:34:20.226Z,20.00
2018-08-30T12:36:48.478Z,19.80
2018-08-30T12:39:16.796Z,20.00
2018-08-30T12:41:45.180Z,20.00
2018-08-30T12:44:13.355Z,19.90
2018-08-30T12:46:42.355Z,19.70
2018-08-30T12:49:10.583Z,19.70
2018-08-30T12:51:39.208Z,19.40
2018-08-30T12:54:07.200Z,19.30
2018-08-30T12:56:35.399Z,19.50
2018-08-30T12:59:08.962Z,19.50
2018-08-30T13:01:37.247Z,19.10
2018-08-30T13:04:05.545Z,18.90
2018-08-30T13:06:33.834Z,19.00
2018-08-30T13:09:02.182Z,19.10
2018-08-30T13:11:30.397Z,19.20
2018-08-30T13:13:58.553Z,19.30
2018-08-30T13:16:26.737Z,19.30
2018-08-30T13:18:54.880Z,19.30
2018-08-30T13:21:23.369Z,19.40
2018-08-30T13:23:51.615Z,19.30
2018-08-30T13:26:19.855Z,19.20
2018-08-30T13:28:48.218Z,19.30
2018-08-30T13:31:16.485Z,19.20
2018-08-30T13:33:44.699Z,19.30
2018-08-30T13:36:13.145Z,19.10
2018-08-30T13:38:41.818Z,19.30
2018-08-30T13:41:09.965Z,19.00
2018-08-30T13:43:38.330Z,19.00
2018-08-30T13:46:06.458Z,19.00
2018-08-30T13:48:34.693Z,19.00
2018-08-30T13:51:03.014Z,19.20
2018-08-30T13:53:31.241Z,19.40
2018-08-30T13:55:59.741Z,19.80
2018-08-30T13:58:28.169Z,19.70
2018-08-30T14:00:56.420Z,20.00
2018-08-30T14:03:24.298Z,19.80
2018-08-30T14:05:52.557Z,20.00
2018-08-30T14:08:20.829Z,19.90
2018-08-30T14:10:48.946Z,19.80
2018-08-30T14:13:17.181Z,19.80
2018-08-30T14:15:45.103Z,19.30
2018-08-30T14:18:13.287Z,19.10
2018-08-30T14:20:41.537Z,18.90
2018-08-30T14:23:09.833Z,19.10
2018-08-30T14:25:38.020Z,19.00
2018-08-30T14:28:06.542Z,19.00
2018-08-30T14:30:34.759Z,19.10
2018-08-30T14:33:02.998Z,19.40
2018-08-30T14:35:31.169Z,19.50
2018-08-30T14:37:59.406Z,19.20
2018-08-30T14:40:27.809Z,19.20
2018-08-30T14:42:55.832Z,19.10
2018-08-30T14:45:24.003Z,19.20
2018-08-30T14:47:52.328Z,19.00
2018-08-30T14:50:20.414Z,18.70
2018-08-30T14:52:48.576Z,18.50
2018-08-30T14:55:16.740Z,18.50
2018-08-30T14:57:44.909Z,18.20
2018-08-30T15:00:13.474Z,18.40
2018-08-30T15:02:41.598Z,18.10
2018-08-30T15:05:10.335Z,17.90
2018-08-30T15:07:38.457Z,17.80
2018-08-30T15:10:06.813Z,17.90
2018-08-30T15:12:35.035Z,18.10
2018-08-30T15:15:03.137Z,18.10
2018-08-30T15:17:31.519Z,18.10
2018-08-30T15:19:59.523Z,17.80
2018-08-30T15:22:27.693Z,17.90
2018-08-30T15:24:55.861Z,17.80
2018-08-30T15:27:24.001Z,17.80
2018-08-30T15:29:52.755Z,17.90
2018-08-30T15:32:21.052Z,18.10
2018-08-30T15:34:49.149Z,18.30
2018-08-30T15:37:17.469Z,18.40
2018-08-30T15:39:45.669Z,18.40
2018-08-30T15:42:13.980Z,18.20
2018-08-30T15:44:42.071Z,18.20
2018-08-30T15:47:10.315Z,18.20
2018-08-30T15:49:38.520Z,18.10
2018-08-30T15:52:06.693Z,18.20
2018-08-30T15:54:34.944Z,18.20
2018-08-30T15:57:03.055Z,18.20
2018-08-30T15:59:31.160Z,18.20
2018-08-30T16:01:59.384Z,18.30
2018-08-30T16:04:27.579Z,18.40
2018-08-30T16:06:55.913Z,18.40
2018-08-30T16:09:23.888Z,18.40
2018-08-30T16:11:52.684Z,18.50
2018-08-30T16:14:20.842Z,18.60
2018-08-30T16:16:48.976Z,18.60
2018-08-30T16:19:17.150Z,18.50
2018-08-30T16:21:45.344Z,18.60
2018-08-30T16:24:13.533Z,18.30
2018-08-30T16:26:42.268Z,18.40
2018-08-30T16:29:11.201Z,18.60
2018-08-30T16:31:39.260Z,18.50
2018-08-30T16:34:07.457Z,18.60
2018-08-30T16:36:35.913Z,18.60
2018-08-30T16:39:06.013Z,18.70
2018-08-30T16:41:34.516Z,18.70
2018-08-30T16:44:02.932Z,18.70
2018-08-30T16:46:31.610Z,18.80
2018-08-30T16:49:00.278Z,18.80
2018-08-30T16:51:28.689Z,18.90
2018-08-30T16:53:57.123Z,18.80
2018-08-30T16:56:25.617Z,18.80
2018-08-30T16:58:54.038Z,18.70
2018-08-30T17:01:22.523Z,18.70
2018-08-30T17:03:51.281Z,18.80
2018-08-30T17:06:20.106Z,18.80
2018-08-30T17:08:48.631Z,18.70
2018-08-30T17:11:17.128Z,18.80
2018-08-30T17:13:45.595Z,18.80
2018-08-30T17:16:14.299Z,18.80
2018-08-30T17:18:44.534Z,18.70
2018-08-30T17:21:13.088Z,18.50
2018-08-30T17:23:41.768Z,18.50
2018-08-30T17:26:10.305Z,18.30
2018-08-30T17:28:38.898Z,18.40
2018-08-30T17:31:07.452Z,18.50
2018-08-30T17:33:35.947Z,18.50
2018-08-30T17:36:04.487Z,18.20
2018-08-30T17:38:33.225Z,18.40
2018-08-30T17:41:01.817Z,18.50
2018-08-30T17:43:30.439Z,18.60
2018-08-30T17:45:59.131Z,18.60
2018-08-30T17:48:27.727Z,18.50
2018-08-30T17:50:56.388Z,18.50
2018-08-30T17:53:24.981Z,18.40
2018-08-30T17:55:53.794Z,18.40
2018-08-30T17:58:22.292Z,18.40
2018-08-30T18:00:50.799Z,18.40
2018-08-30T18:03:19.941Z,18.10
2018-08-30T18:05:48.551Z,17.40
2018-08-30T18:08:17.087Z,17.30
2018-08-30T18:10:45.567Z,17.30
2018-08-30T18:13:14.069Z,17.30
2018-08-30T18:15:42.452Z,17.60
2018-08-30T18:18:11.266Z,17.50
2018-08-30T18:20:40.232Z,17.70
2018-08-30T18:23:08.676Z,17.20
2018-08-30T18:25:37.151Z,16.80
2018-08-30T18:28:05.705Z,16.50
2018-08-30T18:30:34.190Z,16.40
2018-08-30T18:33:02.626Z,17.00
2018-08-30T18:35:31.126Z,17.10
2018-08-30T18:37:59.591Z,17.30
2018-08-30T18:40:28.030Z,17.50
2018-08-30T18:42:56.586Z,17.60
2018-08-30T18:45:25.041Z,17.40
2018-08-30T18:47:53.432Z,17.30
2018-08-30T18:50:21.999Z,16.80
2018-08-30T18:52:50.456Z,16.40
2018-08-30T18:55:18.839Z,16.10
2018-08-30T18:57:47.209Z,15.90
2018-08-30T19:00:15.621Z,16.00
2018-08-30T19:02:44.204Z,16.40
2018-08-30T19:05:12.752Z,16.70
2018-08-30T19:07:41.270Z,16.80
2018-08-30T19:10:09.814Z,16.60
2018-08-30T19:12:38.229Z,16.20
2018-08-30T19:15:11.997Z,15.60
2018-08-30T19:17:45.815Z,15.50
2018-08-30T19:20:14.287Z,16.10
2018-08-30T19:22:42.954Z,16.50
2018-08-30T19:25:15.334Z,16.40
2018-08-30T19:27:45.168Z,15.80
2018-08-30T19:30:19.144Z,15.80
2018-08-30T19:32:47.587Z,15.60
2018-08-30T19:35:21.456Z,15.90
2018-08-30T19:37:49.897Z,15.60
2018-08-30T19:40:23.562Z,15.50
2018-08-30T19:42:52.026Z,15.50
2018-08-30T19:45:20.542Z,15.40
2018-08-30T19:47:48.926Z,15.80
2018-08-30T19:50:17.679Z,15.50
2018-08-30T19:52:46.129Z,15.40
2018-08-30T19:55:14.571Z,15.30
2018-08-30T19:57:43.120Z,15.40
2018-08-30T20:00:11.609Z,15.80
2018-08-30T20:02:40.086Z,16.00
2018-08-30T20:05:08.570Z,16.10
2018-08-30T20:07:37.305Z,16.00
2018-08-30T20:10:06.320Z,15.80
2018-08-30T20:12:34.717Z,16.00
2018-08-30T20:15:03.163Z,16.10
2018-08-30T20:17:31.973Z,16.00
2018-08-30T20:20:00.428Z,16.40
2018-08-30T20:22:28.937Z,16.20
2018-08-30T20:24:57.409Z,16.20
2018-08-30T20:27:26.106Z,16.20
2018-08-30T20:29:54.785Z,16.00
2018-08-30T20:32:23.274Z,16.10
2018-08-30T20:34:51.670Z,15.40
2018-08-30T20:37:20.135Z,15.10
2018-08-30T20:39:48.586Z,15.20
2018-08-30T20:42:17.565Z,15.40
2018-08-30T20:44:46.004Z,15.60
2018-08-30T20:47:14.518Z,15.20
2018-08-30T20:49:43.145Z,15.40
2018-08-30T20:52:11.767Z,15.40
2018-08-30T20:54:40.229Z,14.90
2018-08-30T20:57:08.760Z,14.90
2018-08-30T20:59:37.277Z,14.50
2018-08-30T21:02:05.842Z,14.60
2018-08-30T21:04:34.209Z,15.00
2018-08-30T21:07:02.740Z,15.30
2018-08-30T21:09:31.176Z,15.40
2018-08-30T21:11:59.518Z,15.30
2018-08-30T21:14:27.963Z,15.10
2018-08-30T21:16:56.375Z,15.10
2018-08-30T21:19:24.855Z,15.30
2018-08-30T21:21:53.313Z,15.30
2018-08-30T21:24:21.857Z,15.00
2018-08-30T21:26:50.277Z,14.70
2018-08-30T21:29:18.865Z,14.50
2018-08-30T21:31:47.313Z,14.40
2018-08-30T21:34:16.456Z,14.30
2018-08-30T21:36:44.936Z,14.30
2018-08-30T21:39:13.414Z,14.30
2018-08-30T21:41:41.729Z,14.30
2018-08-30T21:44:10.213Z,14.60
2018-08-30T21:46:38.606Z,14.90
2018-08-30T21:49:07.038Z,15.10
2018-08-30T21:51:35.439Z,15.20
2018-08-30T21:54:03.960Z,15.40
2018-08-30T21:56:32.473Z,15.60
2018-08-30T21:59:00.955Z,15.60
2018-08-30T22:01:29.439Z,15.80
2018-08-30T22:03:58.225Z,15.60
2018-08-30T22:06:26.657Z,15.70
2018-08-30T22:08:55.020Z,15.80
2018-08-30T22:11:23.497Z,15.60
2018-08-30T22:13:51.915Z,15.60
2018-08-30T22:16:20.409Z,15.70
2018-08-30T22:18:49.165Z,15.80
2018-08-30T22:21:17.512Z,15.50
2018-08-30T22:23:46.005Z,15.50
2018-08-30T22:26:14.499Z,15.60
2018-08-30T22:28:42.940Z,15.50
2018-08-30T22:31:11.415Z,15.50
2018-08-30T22:33:39.926Z,15.50
2018-08-30T22:36:08.418Z,15.50
2018-08-30T22:38:36.969Z,15.50
2018-08-30T22:41:05.498Z,15.30
2018-08-30T22:43:33.978Z,14.70
2018-08-30T22:46:02.482Z,14.80
2018-08-30T22:48:30.948Z,15.20
2018-08-30T22:50:59.434Z,14.80
2018-08-30T22:53:27.821Z,14.70
2018-08-30T22:55:56.238Z,15.00
2018-08-30T22:58:24.650Z,15.20
2018-08-30T23:00:53.273Z,14.80
2018-08-30T23:03:21.671Z,14.70
2018-08-30T23:05:50.122Z,14.70
2018-08-30T23:08:18.600Z,14.90
2018-08-30T23:10:47.025Z,14.40
2018-08-30T23:13:15.450Z,14.80
2018-08-30T23:15:43.921Z,14.90
2018-08-30T23:18:12.349Z,15.10
2018-08-30T23:20:40.782Z,14.50
2018-08-30T23:23:09.202Z,14.30
2018-08-30T23:25:37.718Z,14.60
2018-08-30T23:28:06.285Z,14.50
2018-08-30T23:30:34.718Z,14.50
2018-08-30T23:33:03.064Z,14.00
2018-08-30T23:35:31.407Z,13.80
2018-08-30T23:37:59.815Z,13.60
2018-08-30T23:40:28.174Z,13.60
2018-08-30T23:42:56.557Z,13.60
2018-08-30T23:45:25.012Z,13.60
2018-08-30T23:47:53.825Z,13.60
2018-08-30T23:50:22.378Z,13.60
2018-08-30T23:52:50.906Z,13.70
2018-08-30T23:55:19.230Z,13.50
2018-08-30T23:57:58.791Z,13.50
